createdAt,value
2022-08-07T00:00:32.464Z,98229.03
2022-08-07T00:02:44.580Z,98230.84
2022-08-07T00:04:52.582Z,98229.66
2022-08-07T00:07:05.111Z,98229.88
2022-08-07T00:09:22.205Z,98223.03
2022-08-07T00:11:33.155Z,98227.19
2022-08-07T00:13:44.877Z,98229.72
2022-08-07T00:15:53.928Z,98218.66
2022-08-07T00:18:02.970Z,98222.69
2022-08-07T00:20:15.630Z,98228.41
2022-08-07T00:22:40.106Z,98225.34
2022-08-07T00:24:50.086Z,98215.22
2022-08-07T00:27:06.255Z,98213.00
2022-08-07T00:29:15.404Z,98225.44
2022-08-07T00:31:38.180Z,98216.31
2022-08-07T00:33:49.477Z,98221.81
2022-08-07T00:35:58.559Z,98220.34
2022-08-07T00:38:10.606Z,98227.28
2022-08-07T00:40:39.752Z,98226.28
2022-08-07T00:42:50.270Z,98226.19
2022-08-07T00:45:00.466Z,98217.88
2022-08-07T00:47:16.158Z,98218.06
2022-08-07T00:50:19.153Z,98224.53
2022-08-07T00:52:08.942Z,98224.41
2022-08-07T00:54:20.399Z,98216.63
2022-08-07T00:56:34.026Z,98220.69
2022-08-07T00:58:46.960Z,98223.09
2022-08-07T01:00:57.494Z,98221.66
2022-08-07T01:03:06.009Z,98219.13
2022-08-07T01:05:18.854Z,98212.78
2022-08-07T01:07:28.379Z,98212.28
2022-08-07T01:10:04.387Z,98210.75
2022-08-07T01:12:29.308Z,98216.34
2022-08-07T01:14:37.981Z,98203.91
2022-08-07T01:17:07.355Z,98204.59
2022-08-07T01:19:21.838Z,98200.75
2022-08-07T01:21:36.897Z,98190.75
2022-08-07T01:23:46.836Z,98192.78
2022-08-07T01:25:56.531Z,98189.63
2022-08-07T01:28:05.986Z,98191.47
2022-08-07T01:30:14.876Z,98194.31
2022-08-07T01:32:28.031Z,98184.72
2022-08-07T01:34:38.288Z,98186.81
2022-08-07T01:36:57.954Z,98190.41
2022-08-07T01:39:10.154Z,98190.28
2022-08-07T01:41:26.271Z,98189.88
2022-08-07T01:43:39.079Z,98193.97
2022-08-07T01:45:48.607Z,98192.75
2022-08-07T01:48:20.158Z,98182.03
2022-08-07T01:50:32.744Z,98189.75
2022-08-07T01:52:49.376Z,98192.84
2022-08-07T01:55:04.739Z,98188.56
2022-08-07T01:57:24.952Z,98188.84
2022-08-07T01:59:44.041Z,98188.63
2022-08-07T02:02:04.040Z,98194.47
2022-08-07T02:04:18.911Z,98187.75
2022-08-07T02:06:35.611Z,98184.47
2022-08-07T02:08:54.329Z,98179.47
2022-08-07T02:11:07.469Z,98176.91
2022-08-07T02:13:20.187Z,98176.00
2022-08-07T02:15:36.891Z,98183.03
2022-08-07T02:17:49.503Z,98183.16
2022-08-07T02:20:05.718Z,98177.41
2022-08-07T02:22:20.179Z,98176.94
2022-08-07T02:24:33.668Z,98178.13
2022-08-07T02:26:43.206Z,98175.28
2022-08-07T02:28:51.259Z,98174.84
2022-08-07T02:31:00.408Z,98173.41
2022-08-07T02:33:32.854Z,98171.72
2022-08-07T02:36:29.408Z,98179.50
2022-08-07T02:38:32.431Z,98177.16
2022-08-07T02:40:46.516Z,98174.00
2022-08-07T02:42:56.540Z,98167.16
2022-08-07T02:45:57.429Z,98178.56
2022-08-07T02:47:48.913Z,98173.56
2022-08-07T02:50:00.210Z,98186.19
2022-08-07T02:52:18.331Z,98182.88
2022-08-07T02:54:33.558Z,98182.75
2022-08-07T02:56:46.966Z,98189.72
2022-08-07T02:58:57.363Z,98177.78
2022-08-07T03:01:15.935Z,98174.44
2022-08-07T03:03:50.062Z,98179.47
2022-08-07T03:06:06.380Z,98181.03
2022-08-07T03:08:29.349Z,98195.81
2022-08-07T03:10:46.561Z,98191.53
2022-08-07T03:13:03.020Z,98189.38
2022-08-07T03:15:15.442Z,98184.84
2022-08-07T03:17:54.045Z,98180.53
2022-08-07T03:20:04.602Z,98181.69
2022-08-07T03:22:18.921Z,98176.22
2022-08-07T03:24:28.351Z,98179.09
2022-08-07T03:26:50.887Z,98185.41
2022-08-07T03:29:06.220Z,98188.53
2022-08-07T03:31:24.775Z,98184.25
2022-08-07T03:33:53.974Z,98178.03
2022-08-07T03:36:02.475Z,98178.56
2022-08-07T03:38:13.351Z,98180.19
2022-08-07T03:40:27.396Z,98178.81
2022-08-07T03:42:39.510Z,98175.00
2022-08-07T03:44:57.865Z,98172.88
2022-08-07T03:47:13.045Z,98163.81
2022-08-07T03:49:24.915Z,98164.28
2022-08-07T03:51:47.772Z,98173.59
2022-08-07T03:54:35.335Z,98167.59
2022-08-07T03:56:36.534Z,98159.47
2022-08-07T03:59:09.353Z,98166.63
2022-08-07T04:01:18.589Z,98169.03
2022-08-07T04:03:29.479Z,98171.69
2022-08-07T04:05:58.823Z,98166.63
2022-08-07T04:08:08.980Z,98168.25
2022-08-07T04:10:19.948Z,98172.09
2022-08-07T04:12:29.473Z,98163.38
2022-08-07T04:14:43.766Z,98169.25
2022-08-07T04:16:59.008Z,98171.78
2022-08-07T04:19:14.817Z,98176.94
2022-08-07T04:21:31.809Z,98172.59
2022-08-07T04:23:43.585Z,98175.25
2022-08-07T04:26:11.109Z,98187.69
2022-08-07T04:28:21.798Z,98188.41
2022-08-07T04:30:39.375Z,98196.97
2022-08-07T04:33:15.457Z,98189.00
2022-08-07T04:35:25.942Z,98196.22
2022-08-07T04:38:00.987Z,98193.28
2022-08-07T04:40:06.012Z,98196.44
2022-08-07T04:42:13.910Z,98213.69
2022-08-07T04:44:22.417Z,98207.47
2022-08-07T04:46:59.310Z,98216.16
2022-08-07T04:49:24.641Z,98221.53
2022-08-07T04:51:44.778Z,98237.81
2022-08-07T04:54:01.592Z,98240.25
2022-08-07T04:58:15.219Z,98248.69
2022-08-07T04:59:17.155Z,98259.59
2022-08-07T05:01:37.898Z,98273.50
2022-08-07T05:04:06.469Z,98273.94
2022-08-07T05:06:28.141Z,98272.72
2022-08-07T05:08:59.185Z,98274.50
2022-08-07T05:11:19.277Z,98280.88
2022-08-07T05:14:55.447Z,98275.56
2022-08-07T05:16:09.204Z,98282.25
2022-08-07T05:18:23.516Z,98282.84
2022-08-07T05:20:37.809Z,98285.56
2022-08-07T05:22:52.871Z,98246.16
2022-08-07T05:25:08.681Z,98249.31
2022-08-07T05:28:16.059Z,98214.03
2022-08-07T05:29:57.997Z,98218.44
2022-08-07T05:32:08.123Z,98218.97
2022-08-07T05:34:20.941Z,98212.53
2022-08-07T05:36:36.103Z,98222.00
2022-08-07T05:38:58.069Z,98219.53
2022-08-07T05:41:16.711Z,98224.19
2022-08-07T05:44:06.768Z,98215.72
2022-08-07T05:45:59.925Z,98221.63
2022-08-07T05:48:14.178Z,98221.44
2022-08-07T05:50:29.200Z,98220.78
2022-08-07T05:52:37.436Z,98222.25
2022-08-07T05:54:55.401Z,98219.63
2022-08-07T05:57:09.692Z,98212.91
2022-08-07T05:59:21.076Z,98222.75
2022-08-07T06:01:35.787Z,98227.53
2022-08-07T06:03:57.211Z,98227.28
2022-08-07T06:06:11.173Z,98224.19
2022-08-07T06:08:30.957Z,98225.53
2022-08-07T06:10:42.597Z,98232.53
2022-08-07T06:12:52.072Z,98230.50
2022-08-07T06:15:06.249Z,98235.81
2022-08-07T06:17:15.870Z,98231.13
2022-08-07T06:19:47.860Z,98226.06
2022-08-07T06:22:15.027Z,98218.72
2022-08-07T06:24:37.969Z,98212.84
2022-08-07T06:26:53.048Z,98215.84
2022-08-07T06:29:04.189Z,98210.38
2022-08-07T06:31:14.408Z,98220.56
2022-08-07T06:33:27.149Z,98215.56
2022-08-07T06:35:48.139Z,98218.78
2022-08-07T06:38:20.190Z,98214.50
2022-08-07T06:40:34.514Z,98219.28
2022-08-07T06:42:49.348Z,98216.94
2022-08-07T06:45:12.655Z,98207.06
2022-08-07T06:47:28.297Z,98209.56
2022-08-07T06:49:58.649Z,98220.66
2022-08-07T06:52:13.155Z,98209.81
2022-08-07T06:55:32.147Z,98210.97
2022-08-07T06:56:53.351Z,98212.91
2022-08-07T07:00:13.058Z,98206.72
2022-08-07T07:01:52.212Z,98211.69
2022-08-07T07:04:08.264Z,98209.16
2022-08-07T07:06:28.196Z,98213.59
2022-08-07T07:08:39.837Z,98206.84
2022-08-07T07:11:13.489Z,98208.38
2022-08-07T07:13:58.327Z,98212.22
2022-08-07T07:16:20.136Z,98225.25
2022-08-07T07:18:47.839Z,98211.63
2022-08-07T07:21:00.407Z,98219.66
2022-08-07T07:24:09.488Z,98217.84
2022-08-07T07:26:32.445Z,98213.44
2022-08-07T07:28:42.787Z,98214.06
2022-08-07T07:30:56.070Z,98211.63
2022-08-07T07:33:11.715Z,98216.53
2022-08-07T07:35:20.695Z,98210.72
2022-08-07T07:37:47.216Z,98213.59
2022-08-07T07:40:14.875Z,98210.34
2022-08-07T07:42:32.722Z,98203.56
2022-08-07T07:44:45.357Z,98211.47
2022-08-07T07:47:14.008Z,98202.38
2022-08-07T07:50:32.478Z,98203.56
2022-08-07T07:51:59.570Z,98201.56
2022-08-07T07:54:09.273Z,98198.69
2022-08-07T07:56:19.197Z,98198.09
2022-08-07T07:58:40.976Z,98198.25
2022-08-07T08:00:54.831Z,98190.72
2022-08-07T08:03:16.976Z,98199.16
2022-08-07T08:05:55.035Z,98194.41
2022-08-07T08:08:03.596Z,98189.53
2022-08-07T08:10:14.882Z,98193.38
2022-08-07T08:12:58.975Z,98186.06
2022-08-07T08:15:09.355Z,98198.28
2022-08-07T08:18:36.480Z,98190.81
2022-08-07T08:20:18.026Z,98187.19
2022-08-07T08:22:32.964Z,98186.56
2022-08-07T08:25:18.210Z,98189.59
2022-08-07T08:27:33.449Z,98178.34
2022-08-07T08:29:55.512Z,98184.06
2022-08-07T08:32:17.904Z,98182.16
2022-08-07T08:34:29.186Z,98173.75
2022-08-07T08:36:46.247Z,98183.16
2022-08-07T08:39:03.230Z,98178.78
2022-08-07T08:41:17.546Z,98174.59
2022-08-07T08:43:42.388Z,98174.69
2022-08-07T08:46:00.894Z,98183.91
2022-08-07T08:48:18.688Z,98174.25
2022-08-07T08:50:39.333Z,98179.25
2022-08-07T08:52:54.669Z,98175.94
2022-08-07T08:55:10.138Z,98172.06
2022-08-07T08:57:37.914Z,98174.00
2022-08-07T08:59:53.760Z,98183.50
2022-08-07T09:02:13.977Z,98175.81
2022-08-07T09:04:30.126Z,98181.66
2022-08-07T09:06:55.273Z,98172.22
2022-08-07T09:09:20.955Z,98178.09
2022-08-07T09:11:53.246Z,98178.13
2022-08-07T09:14:11.903Z,98181.22
2022-08-07T09:16:30.486Z,98170.50
2022-08-07T09:19:07.334Z,98187.25
2022-08-07T09:22:22.456Z,98179.03
2022-08-07T09:24:32.116Z,98182.28
2022-08-07T09:26:57.041Z,98179.31
2022-08-07T09:30:06.370Z,98183.63
2022-08-07T09:31:53.938Z,98178.66
2022-08-07T09:34:13.938Z,98182.03
2022-08-07T09:36:36.899Z,98173.38
2022-08-07T09:38:53.755Z,98162.66
2022-08-07T09:41:10.655Z,98168.13
2022-08-07T09:44:03.185Z,98178.75
2022-08-07T09:47:51.687Z,98165.31
2022-08-07T09:50:00.450Z,98165.94
2022-08-07T09:52:10.296Z,98159.41
2022-08-07T09:54:16.445Z,98180.88
2022-08-07T09:57:01.987Z,98157.53
2022-08-07T09:59:46.427Z,98158.09
2022-08-07T10:02:24.240Z,98145.53
2022-08-07T10:05:20.107Z,98137.22
2022-08-07T10:08:05.824Z,98142.00
2022-08-07T10:10:25.115Z,98138.88
2022-08-07T10:12:56.470Z,98143.22
2022-08-07T10:15:37.854Z,98142.53
2022-08-07T10:18:11.944Z,98144.28
2022-08-07T10:20:31.742Z,98124.84
2022-08-07T10:23:02.135Z,98141.38
2022-08-07T10:25:23.847Z,98133.28
2022-08-07T10:28:14.312Z,98132.31
2022-08-07T10:30:26.381Z,98126.66
2022-08-07T10:32:59.823Z,98129.91
2022-08-07T10:35:25.512Z,98131.63
2022-08-07T10:38:00.410Z,98125.03
2022-08-07T10:40:22.489Z,98116.09
2022-08-07T10:42:45.664Z,98115.25
2022-08-07T10:45:04.207Z,98116.44
2022-08-07T10:47:27.075Z,98112.25
2022-08-07T10:50:06.728Z,98110.41
2022-08-07T10:52:31.890Z,98105.50
2022-08-07T10:55:00.889Z,98107.06
2022-08-07T10:57:34.747Z,98101.88
2022-08-07T11:00:01.755Z,98093.47
2022-08-07T11:02:33.597Z,98102.34
2022-08-07T11:04:58.117Z,98094.84
2022-08-07T11:07:15.100Z,98092.56
2022-08-07T11:10:09.999Z,98090.00
2022-08-07T11:12:18.862Z,98085.38
2022-08-07T11:14:59.911Z,98079.44
2022-08-07T11:17:23.223Z,98089.34
2022-08-07T11:19:39.875Z,98072.69
2022-08-07T11:22:26.477Z,98075.34
2022-08-07T11:24:48.524Z,98067.38
2022-08-07T11:27:21.529Z,98067.38
2022-08-07T11:30:17.696Z,98065.25
2022-08-07T11:32:32.390Z,98073.25
2022-08-07T11:34:48.571Z,98058.13
2022-08-07T11:37:11.587Z,98054.94
2022-08-07T11:39:39.639Z,98066.44
2022-08-07T11:42:16.914Z,98050.94
2022-08-07T11:44:37.690Z,98055.25
2022-08-07T11:47:01.700Z,98056.94
2022-08-07T11:50:11.507Z,98058.94
2022-08-07T11:52:29.455Z,98051.56
2022-08-07T11:55:01.372Z,98050.69
2022-08-07T11:57:19.318Z,98049.94
2022-08-07T12:00:19.151Z,98044.75
2022-08-07T12:02:38.901Z,98044.00
2022-08-07T12:05:28.261Z,98047.03
2022-08-07T12:07:53.788Z,98047.63
2022-08-07T12:10:23.234Z,98042.91
2022-08-07T12:12:38.402Z,98037.44
2022-08-07T12:14:56.356Z,98040.78
2022-08-07T12:17:20.278Z,98045.56
2022-08-07T12:20:05.517Z,98032.72
2022-08-07T12:26:21.496Z,98030.69
2022-08-07T12:28:14.819Z,98015.47
2022-08-07T12:30:28.910Z,98019.81
2022-08-07T12:32:43.770Z,98016.91
2022-08-07T12:34:55.943Z,98005.69
2022-08-07T12:37:08.242Z,98020.31
2022-08-07T12:39:42.251Z,98012.91
2022-08-07T12:41:56.827Z,98015.81
2022-08-07T12:44:17.173Z,98004.50
2022-08-07T12:46:38.685Z,97998.63
2022-08-07T12:49:00.269Z,98015.03
2022-08-07T12:51:21.210Z,98005.41
2022-08-07T12:54:23.928Z,98025.56
2022-08-07T12:56:12.698Z,98018.84
2022-08-07T12:58:35.487Z,98015.63
2022-08-07T13:00:54.843Z,98021.16
2022-08-07T13:03:56.349Z,98008.78
2022-08-07T13:06:21.346Z,98002.41
2022-08-07T13:08:43.416Z,98003.47
2022-08-07T13:11:09.067Z,97995.06
2022-08-07T13:13:46.874Z,97994.53
2022-08-07T13:16:05.062Z,97989.06
2022-08-07T13:18:28.343Z,97988.94
2022-08-07T13:20:46.620Z,97981.00
2022-08-07T13:24:00.178Z,97980.88
2022-08-07T13:25:43.365Z,97976.00
2022-08-07T13:28:13.897Z,97971.41
2022-08-07T13:30:41.082Z,97977.41
2022-08-07T13:32:57.966Z,97965.56
2022-08-07T13:35:10.978Z,97966.31
2022-08-07T13:37:26.785Z,97965.41
2022-08-07T13:40:33.367Z,97963.59
2022-08-07T13:42:18.901Z,97964.81
2022-08-07T13:44:37.063Z,97965.81
2022-08-07T13:46:56.849Z,97961.28
2022-08-07T13:49:08.781Z,97965.69
2022-08-07T13:52:05.067Z,97960.31
2022-08-07T13:54:16.463Z,97954.72
2022-08-07T13:56:35.942Z,97942.66
2022-08-07T13:59:05.843Z,97949.03
2022-08-07T14:01:22.330Z,97946.66
2022-08-07T14:04:09.617Z,97940.38
2022-08-07T14:06:06.388Z,97947.50
2022-08-07T14:08:15.684Z,97938.69
2022-08-07T14:10:28.186Z,97932.72
2022-08-07T14:12:53.942Z,97930.19
2022-08-07T14:15:08.869Z,97942.28
2022-08-07T14:18:12.115Z,97929.34
2022-08-07T14:20:42.284Z,97938.13
2022-08-07T14:22:34.752Z,97931.41
2022-08-07T14:24:45.351Z,97930.31
2022-08-07T14:26:57.551Z,97922.53
2022-08-07T14:30:04.902Z,97922.53
2022-08-07T14:31:42.937Z,97924.34
2022-08-07T14:34:07.297Z,97909.84
2022-08-07T14:36:18.435Z,97908.97
2022-08-07T14:38:31.373Z,97913.22
2022-08-07T14:40:49.482Z,97918.94
2022-08-07T14:45:46.302Z,97916.75
2022-08-07T14:48:01.451Z,97910.25
2022-08-07T14:50:19.074Z,97910.16
2022-08-07T14:52:34.163Z,97917.53
2022-08-07T14:54:45.044Z,97909.56
2022-08-07T14:56:54.699Z,97916.59
2022-08-07T14:59:13.708Z,97899.56
2022-08-07T15:01:42.714Z,97906.66
2022-08-07T15:04:05.781Z,97908.59
2022-08-07T15:06:15.057Z,97910.81
2022-08-07T15:11:02.850Z,97905.38
2022-08-07T15:13:22.514Z,97910.38
2022-08-07T15:15:38.970Z,97907.28
2022-08-07T15:17:55.886Z,97908.41
2022-08-07T15:20:30.984Z,97908.41
2022-08-07T15:22:51.526Z,97909.00
2022-08-07T15:25:17.111Z,97898.41
2022-08-07T15:27:29.988Z,97900.28
2022-08-07T15:30:04.835Z,97888.50
2022-08-07T15:34:50.486Z,97892.13
2022-08-07T15:37:06.571Z,97887.16
2022-08-07T15:39:18.114Z,97893.28
2022-08-07T15:42:43.392Z,97894.25
2022-08-07T15:44:03.946Z,97880.56
2022-08-07T15:49:03.720Z,97888.50
2022-08-07T15:51:22.651Z,97886.78
2022-08-07T15:53:54.063Z,97885.88
2022-08-07T15:56:13.280Z,97885.31
2022-08-07T15:58:35.877Z,97880.91
2022-08-07T16:00:48.031Z,97883.41
2022-08-07T16:03:01.014Z,97873.88
2022-08-07T16:05:15.955Z,97877.06
2022-08-07T16:08:30.942Z,97872.72
2022-08-07T16:10:15.044Z,97869.31
2022-08-07T16:12:33.471Z,97869.31
2022-08-07T16:15:00.857Z,97870.16
2022-08-07T16:18:02.086Z,97872.44
2022-08-07T16:20:06.736Z,97872.16
2022-08-07T16:22:38.438Z,97867.13
2022-08-07T16:25:09.181Z,97864.44
2022-08-07T16:27:40.681Z,97863.19
2022-08-07T16:30:30.081Z,97863.19
2022-08-07T16:32:57.460Z,97863.91
2022-08-07T16:35:50.299Z,97864.78
2022-08-07T16:38:14.526Z,97870.38
2022-08-07T16:41:05.350Z,97866.28
2022-08-07T16:44:05.913Z,97868.94
2022-08-07T16:47:05.621Z,97863.63
2022-08-07T16:50:20.424Z,97866.00
2022-08-07T16:52:41.723Z,97865.06
2022-08-07T16:54:54.261Z,97865.16
2022-08-07T16:57:15.290Z,97864.47
2022-08-07T16:59:46.820Z,97851.50
2022-08-07T17:02:03.767Z,97852.66
2022-08-07T17:04:24.468Z,97856.22
2022-08-07T17:07:02.783Z,97858.88
2022-08-07T17:10:06.938Z,97854.28
2022-08-07T17:12:04.728Z,97858.09
2022-08-07T17:14:22.025Z,97859.34
2022-08-07T17:16:37.316Z,97860.09
2022-08-07T17:19:04.839Z,97862.72
2022-08-07T17:21:18.765Z,97856.34
2022-08-07T17:23:43.389Z,97860.56
2022-08-07T17:26:04.574Z,97864.78
2022-08-07T17:28:38.149Z,97861.56
2022-08-07T17:30:57.989Z,97861.94
2022-08-07T17:34:09.854Z,97873.09
2022-08-07T17:36:00.498Z,97872.88
2022-08-07T17:38:32.236Z,97879.13
2022-08-07T17:40:50.776Z,97876.00
2022-08-07T17:43:17.903Z,97867.69
2022-08-07T17:45:31.864Z,97871.88
2022-08-07T17:47:54.386Z,97870.50
2022-08-07T17:50:04.075Z,97872.69
2022-08-07T17:52:30.726Z,97868.38
2022-08-07T17:54:53.533Z,97871.66
2022-08-07T17:57:18.951Z,97873.34
2022-08-07T17:59:35.450Z,97880.78
2022-08-07T18:01:50.554Z,97871.69
2022-08-07T18:04:16.632Z,97875.19
2022-08-07T18:06:38.674Z,97875.94
2022-08-07T18:09:06.143Z,97881.31
2022-08-07T18:12:08.021Z,97884.88
2022-08-07T18:13:52.564Z,97879.06
2022-08-07T18:16:10.673Z,97888.81
2022-08-07T18:18:45.763Z,97894.16
2022-08-07T18:21:38.249Z,97881.91
2022-08-07T18:23:43.307Z,97888.88
2022-08-07T18:26:15.214Z,97895.63
2022-08-07T18:28:35.459Z,97901.81
2022-08-07T18:30:55.135Z,97897.56
2022-08-07T18:33:54.957Z,97908.41
2022-08-07T18:36:17.060Z,97908.78
2022-08-07T18:38:56.528Z,97914.38
2022-08-07T18:41:20.903Z,97909.00
2022-08-07T18:43:43.339Z,97921.28
2022-08-07T18:46:25.119Z,97926.66
2022-08-07T18:50:31.879Z,97931.47
2022-08-07T18:52:40.933Z,97931.50
2022-08-07T18:54:30.754Z,97931.44
2022-08-07T18:56:58.392Z,97944.38
2022-08-07T18:59:58.793Z,97948.16
2022-08-07T19:02:34.472Z,97951.88
2022-08-07T19:05:10.477Z,97950.91
2022-08-07T19:07:35.582Z,97957.69
2022-08-07T19:09:56.322Z,97950.72
2022-08-07T19:12:19.230Z,97964.47
2022-08-07T19:14:51.314Z,97971.13
2022-08-07T19:17:08.580Z,97971.63
2022-08-07T19:19:32.590Z,97974.69
2022-08-07T19:21:56.256Z,97970.66
2022-08-07T19:24:30.580Z,97969.09
2022-08-07T19:27:16.897Z,97973.88
2022-08-07T19:31:00.216Z,97978.81
2022-08-07T19:32:07.780Z,97990.34
2022-08-07T19:34:32.497Z,97980.13
2022-08-07T19:36:51.893Z,97985.41
2022-08-07T19:39:09.082Z,97992.31
2022-08-07T19:41:44.950Z,97992.34
2022-08-07T19:43:55.581Z,97992.00
2022-08-07T19:46:11.600Z,97989.63
2022-08-07T19:48:24.022Z,97985.38
2022-08-07T19:50:45.373Z,97989.81
2022-08-07T19:52:58.464Z,97990.78
2022-08-07T19:55:10.951Z,97989.97
2022-08-07T19:58:03.413Z,97994.34
2022-08-07T19:59:52.511Z,97995.69
2022-08-07T20:02:12.312Z,97996.00
2022-08-07T20:04:31.623Z,97988.84
2022-08-07T20:06:46.569Z,97988.59
2022-08-07T20:08:58.445Z,97990.09
2022-08-07T20:11:10.825Z,97997.56
2022-08-07T20:13:26.875Z,97994.66
2022-08-07T20:15:38.950Z,97991.16
2022-08-07T20:18:01.402Z,97984.19
2022-08-07T20:20:15.304Z,97987.22
2022-08-07T20:22:34.438Z,97988.88
2022-08-07T20:24:47.836Z,97992.59
2022-08-07T20:26:58.069Z,97986.44
2022-08-07T20:29:46.503Z,97991.88
2022-08-07T20:31:39.619Z,97983.25
2022-08-07T20:33:56.696Z,97980.56
2022-08-07T20:36:09.079Z,97977.13
2022-08-07T20:38:22.249Z,97976.00
2022-08-07T20:40:35.028Z,97982.81
2022-08-07T20:42:56.146Z,97975.38
2022-08-07T20:45:32.541Z,97979.31
2022-08-07T20:47:55.947Z,97977.84
2022-08-07T20:50:12.411Z,97972.13
2022-08-07T20:52:30.038Z,97974.88
2022-08-07T20:54:53.371Z,97982.19
2022-08-07T20:57:06.751Z,97979.03
2022-08-07T21:00:05.642Z,97975.94
2022-08-07T21:01:55.282Z,97973.47
2022-08-07T21:04:21.950Z,97971.56
2022-08-07T21:06:35.557Z,97969.72
2022-08-07T21:08:47.502Z,97978.09
2022-08-07T21:11:01.219Z,97970.22
2022-08-07T21:13:17.356Z,97970.56
2022-08-07T21:15:47.868Z,97966.03
2022-08-07T21:18:20.618Z,97974.25
2022-08-07T21:20:38.419Z,97976.94
2022-08-07T21:22:53.502Z,97973.78
2022-08-07T21:25:13.667Z,97973.28
2022-08-07T21:27:40.157Z,97970.50
2022-08-07T21:30:04.196Z,97978.31
2022-08-07T21:32:46.969Z,97973.34
2022-08-07T21:34:58.564Z,97969.94
2022-08-07T21:37:13.400Z,97980.03
2022-08-07T21:39:46.758Z,97974.72
2022-08-07T21:42:14.926Z,97990.59
2022-08-07T21:44:51.327Z,97983.91
2022-08-07T21:47:12.145Z,97990.44
2022-08-07T21:50:02.207Z,97991.88
2022-08-07T21:52:13.048Z,97995.38
2022-08-07T21:54:37.413Z,97999.84
2022-08-07T21:56:57.760Z,97995.72
2022-08-07T21:59:14.261Z,97994.72
2022-08-07T22:02:06.153Z,98003.25
2022-08-07T22:04:02.852Z,97997.19
2022-08-07T22:06:28.806Z,98007.81
2022-08-07T22:08:45.438Z,98008.22
2022-08-07T22:11:02.711Z,98011.06
2022-08-07T22:13:16.012Z,98014.16
2022-08-07T22:16:42.993Z,98012.59
2022-08-07T22:17:58.944Z,98008.38
2022-08-07T22:20:23.527Z,98016.19
2022-08-07T22:22:44.540Z,98013.19
2022-08-07T22:25:02.943Z,98009.13
2022-08-07T22:27:33.831Z,98002.47
2022-08-07T22:29:55.381Z,97995.03
2022-08-07T22:32:08.368Z,98003.47
2022-08-07T22:34:29.219Z,98001.56
2022-08-07T22:36:48.189Z,97998.03
2022-08-07T22:39:05.761Z,97999.59
2022-08-07T22:41:19.908Z,98000.44
2022-08-07T22:43:39.016Z,98005.66
2022-08-07T22:46:21.321Z,98000.00
2022-08-07T22:48:56.025Z,98002.50
2022-08-07T22:51:36.423Z,98008.81
2022-08-07T22:54:07.736Z,98004.28
2022-08-07T22:56:21.763Z,98002.16
2022-08-07T22:58:58.027Z,98004.50
2022-08-07T23:01:24.598Z,98005.91
2022-08-07T23:03:57.624Z,98007.09
2022-08-07T23:06:32.814Z,98002.13
2022-08-07T23:10:04.947Z,97999.94
2022-08-07T23:11:44.239Z,97999.66
2022-08-07T23:14:22.776Z,97996.44
2022-08-07T23:16:55.566Z,98003.66
2022-08-07T23:19:38.894Z,98000.44
2022-08-07T23:22:07.116Z,98000.22
2022-08-07T23:24:45.349Z,98008.22
2022-08-07T23:27:17.391Z,98007.84
2022-08-07T23:30:38.439Z,98006.56
2022-08-07T23:34:34.748Z,98007.19
2022-08-07T23:35:37.399Z,98006.50
2022-08-07T23:38:09.305Z,98002.25
2022-08-07T23:40:32.640Z,98008.25
2022-08-07T23:42:53.385Z,98001.19
2022-08-07T23:46:01.824Z,97997.66
2022-08-07T23:48:02.897Z,97997.00
2022-08-07T23:50:29.673Z,97985.63
2022-08-07T23:53:05.591Z,97992.28
2022-08-07T23:55:46.979Z,97995.28
2022-08-07T23:57:56.684Z,97995.50
